createdAt,value
2019-03-12T00:00:18.547Z,9.83
2019-03-12T00:02:46.945Z,9.97
2019-03-12T00:05:15.253Z,9.03
2019-03-12T00:07:43.557Z,9.07
2019-03-12T00:10:11.816Z,8.87
2019-03-12T00:12:40.128Z,10.00
2019-03-12T00:15:08.374Z,9.87
2019-03-12T00:17:36.669Z,10.37
2019-03-12T00:20:07.517Z,11.30
2019-03-12T00:22:35.821Z,11.93
2019-03-12T00:25:04.302Z,11.63
2019-03-12T00:27:32.572Z,12.57
2019-03-12T00:30:00.858Z,13.53
2019-03-12T00:32:29.188Z,12.63
2019-03-12T00:34:57.481Z,11.93
2019-03-12T00:37:25.747Z,11.90
2019-03-12T00:39:54.040Z,10.80
2019-03-12T00:42:22.313Z,11.57
2019-03-12T00:44:50.638Z,10.10
2019-03-12T00:47:18.906Z,10.97
2019-03-12T00:49:47.211Z,10.97
2019-03-12T00:52:15.554Z,10.27
2019-03-12T00:54:43.884Z,9.83
2019-03-12T00:57:12.153Z,8.37
2019-03-12T00:59:40.446Z,8.33
2019-03-12T01:02:08.705Z,8.30
2019-03-12T01:04:36.992Z,8.47
2019-03-12T01:07:05.272Z,9.07
2019-03-12T01:09:33.642Z,10.47
2019-03-12T01:12:01.918Z,9.23
2019-03-12T01:14:30.303Z,9.73
2019-03-12T01:16:58.574Z,11.03
2019-03-12T01:19:26.892Z,10.83
2019-03-12T01:21:55.154Z,11.23
2019-03-12T01:24:23.428Z,10.57
2019-03-12T01:26:51.745Z,11.77
2019-03-12T01:29:20.004Z,12.70
2019-03-12T01:31:48.377Z,10.63
2019-03-12T01:34:16.741Z,10.47
2019-03-12T01:36:45.014Z,10.90
2019-03-12T01:39:13.279Z,10.00
2019-03-12T01:41:41.573Z,9.10
2019-03-12T01:44:09.898Z,8.37
2019-03-12T01:46:38.207Z,10.57
2019-03-12T01:49:06.478Z,9.00
2019-03-12T01:51:34.766Z,8.97
2019-03-12T01:54:03.033Z,9.17
2019-03-12T01:56:31.308Z,9.40
2019-03-12T01:58:59.572Z,9.57
2019-03-12T02:01:27.867Z,8.90
2019-03-12T02:03:56.127Z,7.80
2019-03-12T02:06:24.497Z,9.30
2019-03-12T02:08:52.752Z,8.23
2019-03-12T02:11:21.025Z,8.07
2019-03-12T02:13:49.304Z,8.20
2019-03-12T02:16:17.606Z,7.80
2019-03-12T02:18:45.877Z,8.00
2019-03-12T02:21:14.201Z,8.63
2019-03-12T02:23:42.527Z,9.83
2019-03-12T02:26:10.806Z,9.80
2019-03-12T02:28:39.092Z,8.60
2019-03-12T02:31:07.346Z,9.07
2019-03-12T02:33:35.665Z,8.20
2019-03-12T02:36:03.954Z,8.47
2019-03-12T02:38:32.298Z,8.97
2019-03-12T02:41:00.579Z,8.97
2019-03-12T02:43:28.868Z,9.00
2019-03-12T02:45:57.141Z,8.23
2019-03-12T02:48:25.491Z,8.87
2019-03-12T02:50:53.762Z,8.40
2019-03-12T02:53:22.029Z,9.10
2019-03-12T02:55:50.292Z,9.13
2019-03-12T02:58:18.568Z,9.77
2019-03-12T03:00:46.835Z,9.20
2019-03-12T03:03:15.117Z,9.23
2019-03-12T03:05:47.770Z,9.07
2019-03-12T03:08:17.688Z,7.50
2019-03-12T03:10:45.943Z,9.07
2019-03-12T03:13:14.242Z,9.27
2019-03-12T03:15:44.162Z,10.37
2019-03-12T03:18:12.494Z,9.60
2019-03-12T03:20:40.839Z,10.67
2019-03-12T03:23:09.188Z,11.00
2019-03-12T03:25:37.534Z,10.67
2019-03-12T03:28:05.796Z,11.23
2019-03-12T03:30:34.228Z,10.33
2019-03-12T03:33:02.533Z,9.13
2019-03-12T03:35:30.911Z,9.23
2019-03-12T03:37:59.166Z,9.13
2019-03-12T03:40:27.445Z,9.60
2019-03-12T03:42:55.692Z,9.93
2019-03-12T03:45:23.986Z,10.07
2019-03-12T03:47:52.395Z,10.03
2019-03-12T03:50:20.777Z,10.13
2019-03-12T03:52:49.069Z,10.30
2019-03-12T03:55:18.871Z,9.83
2019-03-12T03:57:47.183Z,11.00
2019-03-12T04:00:21.034Z,10.73
2019-03-12T04:02:49.356Z,10.83
2019-03-12T04:05:17.717Z,10.90
2019-03-12T04:07:46.014Z,11.07
2019-03-12T04:10:14.693Z,13.10
2019-03-12T04:12:43.193Z,11.00
2019-03-12T04:15:13.235Z,13.13
2019-03-12T04:17:41.567Z,13.63
2019-03-12T04:20:14.474Z,11.90
2019-03-12T04:22:42.736Z,10.20
2019-03-12T04:25:11.429Z,10.13
2019-03-12T04:27:39.772Z,10.90
2019-03-12T04:30:11.298Z,11.23
2019-03-12T04:32:39.651Z,11.73
2019-03-12T04:35:10.562Z,12.17
2019-03-12T04:37:38.902Z,12.13
2019-03-12T04:40:10.002Z,10.90
2019-03-12T04:42:38.309Z,11.80
2019-03-12T04:45:09.723Z,11.83
2019-03-12T04:47:38.003Z,11.67
2019-03-12T04:50:07.920Z,12.50
2019-03-12T04:52:36.210Z,11.90
2019-03-12T04:55:07.314Z,11.97
2019-03-12T04:57:35.666Z,12.43
2019-03-12T05:00:07.254Z,12.60
2019-03-12T05:02:35.568Z,14.13
2019-03-12T05:05:05.088Z,15.93
2019-03-12T05:07:33.399Z,16.20
2019-03-12T05:10:01.676Z,16.57
2019-03-12T05:12:30.767Z,15.10
2019-03-12T05:14:59.096Z,14.83
2019-03-12T05:17:27.421Z,15.30
2019-03-12T05:19:55.728Z,14.73
2019-03-12T05:22:23.973Z,13.53
2019-03-12T05:24:52.276Z,13.53
2019-03-12T05:27:20.587Z,13.07
2019-03-12T05:29:48.877Z,13.13
2019-03-12T05:32:17.173Z,13.43
2019-03-12T05:34:45.451Z,15.17
2019-03-12T05:37:13.823Z,16.50
2019-03-12T05:39:42.113Z,19.53
2019-03-12T05:42:10.372Z,19.63
2019-03-12T05:44:38.701Z,19.70
2019-03-12T05:47:08.308Z,18.33
2019-03-12T05:49:36.773Z,19.53
2019-03-12T05:52:05.089Z,15.93
2019-03-12T05:54:33.372Z,18.00
2019-03-12T05:57:01.654Z,17.60
2019-03-12T05:59:29.947Z,17.67
2019-03-12T06:01:58.203Z,13.57
2019-03-12T06:04:26.511Z,13.83
2019-03-12T06:06:54.868Z,12.97
2019-03-12T06:09:30.106Z,14.10
2019-03-12T06:11:53.216Z,14.33
2019-03-12T06:14:21.516Z,15.00
2019-03-12T06:16:49.786Z,14.77
2019-03-12T06:19:18.048Z,15.43
2019-03-12T06:21:46.383Z,16.13
2019-03-12T06:24:14.691Z,15.67
2019-03-12T06:26:42.993Z,16.00
2019-03-12T06:29:11.223Z,16.67
2019-03-12T06:31:41.226Z,15.63
2019-03-12T06:34:11.141Z,16.77
2019-03-12T06:36:49.945Z,16.73
2019-03-12T06:39:19.848Z,16.60
2019-03-12T06:41:49.843Z,14.53
2019-03-12T06:44:25.702Z,10.17
2019-03-12T06:46:55.658Z,7.93
2019-03-12T06:49:25.563Z,10.10
2019-03-12T06:52:01.278Z,8.57
2019-03-12T06:54:31.169Z,8.13
2019-03-12T06:57:09.692Z,7.60
2019-03-12T06:59:39.600Z,7.27
2019-03-12T07:02:18.346Z,5.60
2019-03-12T07:04:48.287Z,5.57
2019-03-12T07:07:18.276Z,5.20
2019-03-12T07:09:48.172Z,4.87
2019-03-12T07:12:18.116Z,4.37
2019-03-12T07:14:48.032Z,4.37
2019-03-12T07:17:17.983Z,4.47
2019-03-12T07:19:48.017Z,4.20
2019-03-12T07:22:27.002Z,4.20
2019-03-12T07:25:12.693Z,3.93
2019-03-12T07:27:42.681Z,3.30
2019-03-12T07:30:13.308Z,3.67
2019-03-12T07:32:46.262Z,3.50
2019-03-12T07:35:25.078Z,3.70
2019-03-12T07:37:57.577Z,3.40
2019-03-12T07:40:36.277Z,3.67
2019-03-12T07:43:06.213Z,2.80
2019-03-12T07:45:41.989Z,3.03
2019-03-12T07:48:25.562Z,3.57
2019-03-12T07:51:10.571Z,4.20
2019-03-12T07:53:43.287Z,3.60
2019-03-12T07:56:30.874Z,3.50
2019-03-12T07:59:16.668Z,2.80
2019-03-12T08:01:55.661Z,2.80
2019-03-12T08:04:25.608Z,3.00
2019-03-12T08:06:58.209Z,3.10
2019-03-12T08:09:28.158Z,2.77
2019-03-12T08:12:03.832Z,2.70
2019-03-12T08:14:50.021Z,2.53
2019-03-12T08:17:22.626Z,2.97
2019-03-12T08:19:52.623Z,3.33
2019-03-12T08:22:22.506Z,2.93
2019-03-12T08:24:52.430Z,2.97
2019-03-12T08:27:37.525Z,2.93
2019-03-12T08:30:13.678Z,2.93
2019-03-12T08:32:58.469Z,2.90
2019-03-12T08:35:31.422Z,2.83
2019-03-12T08:38:04.085Z,3.30
2019-03-12T08:40:36.986Z,3.00
2019-03-12T08:43:06.910Z,2.83
2019-03-12T08:45:40.110Z,2.90
2019-03-12T08:48:13.284Z,3.23
2019-03-12T08:50:52.391Z,2.53
2019-03-12T08:53:25.311Z,3.20
2019-03-12T08:55:58.217Z,3.17
2019-03-12T08:58:28.122Z,3.30
2019-03-12T09:01:00.772Z,2.90
2019-03-12T09:03:45.401Z,3.07
2019-03-12T09:06:33.145Z,3.30
2019-03-12T09:09:19.051Z,3.40
2019-03-12T09:11:49.061Z,4.00
2019-03-12T09:14:21.760Z,4.43
2019-03-12T09:17:07.576Z,4.40
2019-03-12T09:19:40.232Z,3.53
2019-03-12T09:22:16.088Z,9.50
2019-03-12T09:25:00.830Z,3.53
2019-03-12T09:27:36.671Z,3.03
2019-03-12T09:30:25.116Z,2.60
2019-03-12T09:33:09.847Z,3.00
2019-03-12T09:35:45.461Z,2.23
2019-03-12T09:38:18.106Z,3.53
2019-03-12T09:40:51.091Z,2.03
2019-03-12T09:43:21.023Z,2.00
2019-03-12T09:45:56.962Z,2.17
2019-03-12T09:48:26.971Z,2.40
2019-03-12T09:50:59.879Z,2.60
2019-03-12T09:53:46.030Z,2.40
2019-03-12T09:56:24.769Z,2.13
2019-03-12T09:59:06.577Z,2.27
2019-03-12T10:01:52.752Z,2.60
2019-03-12T10:04:34.807Z,2.57
2019-03-12T10:07:20.496Z,3.17
2019-03-12T10:10:05.298Z,2.47
2019-03-12T10:12:41.001Z,2.37
2019-03-12T10:15:11.207Z,2.20
2019-03-12T10:17:41.117Z,2.43
2019-03-12T10:20:20.222Z,2.73
2019-03-12T10:22:50.154Z,2.17
2019-03-12T10:25:20.113Z,2.37
2019-03-12T10:27:55.937Z,2.57
2019-03-12T10:30:28.762Z,2.60
2019-03-12T10:33:13.498Z,2.73
2019-03-12T10:35:59.835Z,2.50
2019-03-12T10:39:08.807Z,2.47
2019-03-12T10:41:54.492Z,2.20
2019-03-12T10:44:30.471Z,2.67
2019-03-12T10:47:03.134Z,2.70
2019-03-12T10:49:37.278Z,2.33
2019-03-12T10:52:01.495Z,2.70
2019-03-12T10:54:29.776Z,2.37
2019-03-12T10:56:58.077Z,2.40
2019-03-12T10:59:26.346Z,2.20
2019-03-12T11:01:54.639Z,2.33
2019-03-12T11:04:22.977Z,2.23
2019-03-12T11:06:51.326Z,3.13
2019-03-12T11:09:19.578Z,2.07
2019-03-12T11:11:47.866Z,2.73
2019-03-12T11:14:16.131Z,2.83
2019-03-12T11:16:44.432Z,3.17
2019-03-12T11:19:12.682Z,3.90
2019-03-12T11:21:40.967Z,3.87
2019-03-12T11:24:09.356Z,3.67
2019-03-12T11:26:37.691Z,2.20
2019-03-12T11:29:05.970Z,3.00
2019-03-12T11:31:34.320Z,2.37
2019-03-12T11:34:02.577Z,2.60
2019-03-12T11:36:31.124Z,3.00
2019-03-12T11:38:59.717Z,2.40
2019-03-12T11:41:28.018Z,3.17
2019-03-12T11:43:56.278Z,2.27
2019-03-12T11:46:24.634Z,2.63
2019-03-12T11:48:52.969Z,2.63
2019-03-12T11:51:21.401Z,2.87
2019-03-12T11:53:49.736Z,2.87
2019-03-12T11:56:18.121Z,2.37
2019-03-12T11:58:46.407Z,3.07
2019-03-12T12:01:14.761Z,2.50
2019-03-12T12:03:43.083Z,2.47
2019-03-12T12:06:11.349Z,2.13
2019-03-12T12:08:39.653Z,2.80
2019-03-12T12:11:07.907Z,1.90
2019-03-12T12:13:36.226Z,2.00
2019-03-12T12:16:04.543Z,2.40
2019-03-12T12:18:32.927Z,2.70
2019-03-12T12:21:01.262Z,2.50
2019-03-12T12:23:29.568Z,2.60
2019-03-12T12:25:57.827Z,2.43
2019-03-12T12:28:26.131Z,2.53
2019-03-12T12:30:54.491Z,2.70
2019-03-12T12:33:22.790Z,2.20
2019-03-12T12:35:51.118Z,2.30
2019-03-12T12:38:19.466Z,3.03
2019-03-12T12:40:47.775Z,2.57
2019-03-12T12:43:16.097Z,2.50
2019-03-12T12:45:44.433Z,2.47
2019-03-12T12:48:12.717Z,1.97
2019-03-12T12:50:40.965Z,2.57
2019-03-12T12:53:09.246Z,3.70
2019-03-12T12:55:37.582Z,2.30
2019-03-12T12:58:05.856Z,2.03
2019-03-12T13:00:34.159Z,2.63
2019-03-12T13:03:02.434Z,2.00
2019-03-12T13:05:30.700Z,2.27
2019-03-12T13:07:58.967Z,2.40
2019-03-12T13:10:28.498Z,1.80
2019-03-12T13:12:56.752Z,2.10
2019-03-12T13:15:25.060Z,1.97
2019-03-12T13:17:53.329Z,2.60
2019-03-12T13:20:21.621Z,2.53
2019-03-12T13:22:49.890Z,2.27
2019-03-12T13:25:18.612Z,2.20
2019-03-12T13:27:46.900Z,2.60
2019-03-12T13:30:20.690Z,2.40
2019-03-12T13:32:49.039Z,2.30
2019-03-12T13:35:17.849Z,2.60
2019-03-12T13:37:46.212Z,2.00
2019-03-12T13:40:17.565Z,2.23
2019-03-12T13:42:45.907Z,2.20
2019-03-12T13:45:26.061Z,1.90
2019-03-12T13:47:54.371Z,2.00
2019-03-12T13:50:22.655Z,2.10
2019-03-12T13:52:51.061Z,2.13
2019-03-12T13:55:19.437Z,2.10
2019-03-12T13:57:47.790Z,1.97
2019-03-12T14:00:20.378Z,2.13
2019-03-12T14:02:48.735Z,2.00
2019-03-12T14:05:16.995Z,1.90
2019-03-12T14:07:45.357Z,2.20
2019-03-12T14:10:21.716Z,2.17
2019-03-12T14:12:50.399Z,1.97
2019-03-12T14:15:26.689Z,1.57
2019-03-12T14:17:54.989Z,1.90
2019-03-12T14:20:49.783Z,1.93
2019-03-12T14:23:29.259Z,1.90
2019-03-12T14:25:57.608Z,1.93
2019-03-12T14:28:25.977Z,2.03
2019-03-12T14:30:54.240Z,2.00
2019-03-12T14:33:22.570Z,2.20
2019-03-12T14:35:52.304Z,1.90
2019-03-12T14:38:20.816Z,1.90
2019-03-12T14:40:49.117Z,2.20
2019-03-12T14:43:17.487Z,1.87
2019-03-12T14:45:50.563Z,1.80
2019-03-12T14:48:40.981Z,1.80
2019-03-12T14:51:12.546Z,2.10
2019-03-12T14:53:42.166Z,2.93
2019-03-12T14:56:10.510Z,1.93
2019-03-12T14:58:38.776Z,2.10
2019-03-12T15:01:07.146Z,2.13
2019-03-12T15:03:35.464Z,2.07
2019-03-12T15:06:03.760Z,2.43
2019-03-12T15:08:32.093Z,2.90
2019-03-12T15:11:00.481Z,2.33
2019-03-12T15:13:28.830Z,2.63
2019-03-12T15:15:57.195Z,1.80
2019-03-12T15:18:25.529Z,1.97
2019-03-12T15:20:53.826Z,2.10
2019-03-12T15:23:22.121Z,2.03
2019-03-12T15:25:50.418Z,1.93
2019-03-12T15:28:18.662Z,2.00
2019-03-12T15:30:46.971Z,1.80
2019-03-12T15:33:15.221Z,1.77
2019-03-12T15:35:43.595Z,1.77
2019-03-12T15:38:11.985Z,2.20
2019-03-12T15:40:40.275Z,1.50
2019-03-12T15:43:08.611Z,1.80
2019-03-12T15:45:36.930Z,1.83
2019-03-12T15:48:05.275Z,1.93
2019-03-12T15:50:34.839Z,1.83
2019-03-12T15:53:03.241Z,1.57
2019-03-12T15:55:31.603Z,2.17
2019-03-12T15:57:59.956Z,2.07
2019-03-12T16:00:28.283Z,1.90
2019-03-12T16:02:56.571Z,1.53
2019-03-12T16:05:24.834Z,1.60
2019-03-12T16:07:53.169Z,1.83
2019-03-12T16:10:21.534Z,1.40
2019-03-12T16:12:49.847Z,1.30
2019-03-12T16:15:18.550Z,1.60
2019-03-12T16:17:46.835Z,1.80
2019-03-12T16:20:18.354Z,1.90
2019-03-12T16:22:46.651Z,1.90
2019-03-12T16:25:14.978Z,1.40
2019-03-12T16:27:43.268Z,1.90
2019-03-12T16:30:18.423Z,1.80
2019-03-12T16:32:46.760Z,1.80
2019-03-12T16:35:15.025Z,1.90
2019-03-12T16:37:43.320Z,1.50
2019-03-12T16:40:13.812Z,1.60
2019-03-12T16:42:42.182Z,1.47
2019-03-12T16:45:15.770Z,1.63
2019-03-12T16:47:44.111Z,1.50
2019-03-12T16:50:13.706Z,1.70
2019-03-12T16:52:42.023Z,1.80
2019-03-12T16:55:11.677Z,1.57
2019-03-12T16:57:39.936Z,1.60
2019-03-12T17:00:21.648Z,1.17
2019-03-12T17:02:49.985Z,1.93
2019-03-12T17:05:18.332Z,1.53
2019-03-12T17:07:46.652Z,1.53
2019-03-12T17:10:21.375Z,1.50
2019-03-12T17:12:49.782Z,1.00
2019-03-12T17:15:20.645Z,1.30
2019-03-12T17:17:48.900Z,1.27
2019-03-12T17:20:17.326Z,1.37
2019-03-12T17:22:45.629Z,1.20
2019-03-12T17:25:13.992Z,1.47
2019-03-12T17:27:42.234Z,1.37
2019-03-12T17:30:23.725Z,1.60
2019-03-12T17:32:51.988Z,1.17
2019-03-12T17:35:31.375Z,1.17
2019-03-12T17:37:59.637Z,1.20
2019-03-12T17:40:27.947Z,1.30
2019-03-12T17:42:56.194Z,1.33
2019-03-12T17:45:24.477Z,1.57
2019-03-12T17:47:52.756Z,1.23
2019-03-12T17:50:21.077Z,2.10
2019-03-12T17:52:49.414Z,1.17
2019-03-12T17:55:17.789Z,1.70
2019-03-12T17:57:46.183Z,1.63
2019-03-12T18:00:19.941Z,1.33
2019-03-12T18:02:48.259Z,1.30
2019-03-12T18:05:16.631Z,1.53
2019-03-12T18:07:44.988Z,1.30
2019-03-12T18:10:14.718Z,1.20
2019-03-12T18:12:43.071Z,1.43
2019-03-12T18:15:13.712Z,1.63
2019-03-12T18:17:42.223Z,1.10
2019-03-12T18:20:13.350Z,1.50
2019-03-12T18:22:41.710Z,1.40
2019-03-12T18:25:21.724Z,1.30
2019-03-12T18:27:50.112Z,1.37
2019-03-12T18:30:18.622Z,1.30
2019-03-12T18:32:46.980Z,1.20
2019-03-12T18:35:15.299Z,1.20
2019-03-12T18:37:43.672Z,1.40
2019-03-12T18:40:19.949Z,1.43
2019-03-12T18:42:48.329Z,0.80
2019-03-12T18:45:22.000Z,1.40
2019-03-12T18:47:50.387Z,1.30
2019-03-12T18:50:19.214Z,2.00
2019-03-12T18:52:47.531Z,1.93
2019-03-12T18:55:30.799Z,1.23
2019-03-12T18:57:59.195Z,1.40
2019-03-12T19:00:27.590Z,1.47
2019-03-12T19:02:55.980Z,1.10
2019-03-12T19:05:24.311Z,1.83
2019-03-12T19:07:52.665Z,1.23
2019-03-12T19:10:20.906Z,1.40
2019-03-12T19:12:49.276Z,1.77
2019-03-12T19:15:17.709Z,1.90
2019-03-12T19:17:46.122Z,1.80
2019-03-12T19:20:18.395Z,1.70
2019-03-12T19:22:46.690Z,1.27
2019-03-12T19:25:27.739Z,2.00
2019-03-12T19:28:00.300Z,1.80
2019-03-12T19:30:26.079Z,1.70
2019-03-12T19:32:59.013Z,1.40
2019-03-12T19:35:28.924Z,1.60
2019-03-12T19:37:58.335Z,1.30
2019-03-12T19:40:43.979Z,1.40
2019-03-12T19:43:12.401Z,1.43
2019-03-12T19:45:41.665Z,1.13
2019-03-12T19:48:09.950Z,1.70
2019-03-12T19:50:38.312Z,1.83
2019-03-12T19:53:06.635Z,1.23
2019-03-12T19:55:44.004Z,1.30
2019-03-12T19:58:12.290Z,1.43
2019-03-12T20:00:40.651Z,1.40
2019-03-12T20:03:13.401Z,1.40
2019-03-12T20:05:38.901Z,1.27
2019-03-12T20:08:07.188Z,1.10
2019-03-12T20:10:47.780Z,1.40
2019-03-12T20:13:47.886Z,1.23
2019-03-12T20:16:37.410Z,1.57
2019-03-12T20:19:37.470Z,1.27
2019-03-12T20:22:31.614Z,1.23
2019-03-12T20:25:36.147Z,1.20
2019-03-12T20:28:36.028Z,1.30
2019-03-12T20:31:10.476Z,1.40
2019-03-12T20:33:50.719Z,1.60
2019-03-12T20:36:41.691Z,1.30
2019-03-12T20:39:32.290Z,1.50
2019-03-12T20:42:36.545Z,1.10
2019-03-12T20:45:30.521Z,0.97
2019-03-12T20:48:07.886Z,1.37
2019-03-12T20:51:13.764Z,1.40
2019-03-12T20:54:00.238Z,1.50
2019-03-12T20:57:04.666Z,1.30
2019-03-12T20:59:58.615Z,1.50
2019-03-12T21:02:30.176Z,1.33
2019-03-12T21:05:22.627Z,1.60
2019-03-12T21:08:13.360Z,1.30
2019-03-12T21:11:07.240Z,1.53
2019-03-12T21:14:11.534Z,1.40
2019-03-12T21:17:05.352Z,1.27
2019-03-12T21:19:56.290Z,1.10
2019-03-12T21:22:44.365Z,1.47
2019-03-12T21:25:18.613Z,1.53
2019-03-12T21:27:55.666Z,1.30
2019-03-12T21:30:25.855Z,1.40
2019-03-12T21:32:54.172Z,1.40
2019-03-12T21:35:22.489Z,1.30
2019-03-12T21:37:50.859Z,1.10
2019-03-12T21:40:19.221Z,1.17
2019-03-12T21:42:47.574Z,1.40
2019-03-12T21:45:16.002Z,1.30
2019-03-12T21:47:44.242Z,1.53
2019-03-12T21:50:12.526Z,1.10
2019-03-12T21:52:40.887Z,1.27
2019-03-12T21:55:12.577Z,1.40
2019-03-12T21:57:40.839Z,1.17
2019-03-12T22:00:15.034Z,0.90
2019-03-12T22:02:43.309Z,1.30
2019-03-12T22:05:11.684Z,1.30
2019-03-12T22:07:39.963Z,2.00
2019-03-12T22:10:10.552Z,1.30
2019-03-12T22:12:38.819Z,1.43
2019-03-12T22:15:10.214Z,1.70
2019-03-12T22:17:38.539Z,1.40
2019-03-12T22:20:11.955Z,1.47
2019-03-12T22:22:47.718Z,1.30
2019-03-12T22:25:15.985Z,1.33
2019-03-12T22:27:44.366Z,1.57
2019-03-12T22:30:18.699Z,1.50
2019-03-12T22:32:47.240Z,1.50
2019-03-12T22:35:15.535Z,1.30
2019-03-12T22:37:43.811Z,1.60
2019-03-12T22:40:13.666Z,1.10
2019-03-12T22:42:42.018Z,1.30
2019-03-12T22:45:12.393Z,1.33
2019-03-12T22:47:40.801Z,1.00
2019-03-12T22:50:13.466Z,0.80
2019-03-12T22:52:41.741Z,0.50
2019-03-12T22:55:11.223Z,0.50
2019-03-12T22:57:39.582Z,0.50
2019-03-12T23:00:12.740Z,0.57
2019-03-12T23:02:42.659Z,0.70
2019-03-12T23:05:11.143Z,0.93
2019-03-12T23:07:39.428Z,0.67
2019-03-12T23:10:10.876Z,1.10
2019-03-12T23:12:39.250Z,0.80
2019-03-12T23:15:15.864Z,1.40
2019-03-12T23:17:44.252Z,1.30
2019-03-12T23:20:14.669Z,2.07
2019-03-12T23:22:43.079Z,2.00
2019-03-12T23:25:11.362Z,2.40
2019-03-12T23:27:39.650Z,1.80
2019-03-12T23:30:16.019Z,1.77
2019-03-12T23:32:44.340Z,2.30
2019-03-12T23:35:12.718Z,2.63
2019-03-12T23:37:40.973Z,2.20
2019-03-12T23:40:16.166Z,1.87
2019-03-12T23:42:44.494Z,2.60
2019-03-12T23:45:13.715Z,2.93
2019-03-12T23:47:42.040Z,3.43
2019-03-12T23:50:11.838Z,3.50
2019-03-12T23:52:40.119Z,3.63
2019-03-12T23:55:12.478Z,4.17
2019-03-12T23:57:40.755Z,4.43
